Flight Track Log - Related Links

Times and Time Zones

All times are in EDT time to prevent confusion due to time zone crossing. See the EJA922 flight status page for this flight to view local times or setup timezone preferences in your user account.


Time Position Orientation Groundspeed Altitude Reporting Facility
EDT Latitude Longitude Course Direction KTS MPH feet Rate Location/Type
Sat 10:31:59 AM 40.7606 -111.9639 231° Southwest 192 221 5,300  Level Salt Lake Center
Sat 10:32:48 AM 40.7344 -112.0067 231° Southwest 226 260 8,100 3,097 Climbing Salt Lake Center
Sat 10:33:01 AM 40.7353 -112.0214 274° West 236 272 8,500 1,280 Climbing Salt Lake Center
Sat 10:34:03 AM 40.7819 -112.1019 307° West 284 327 9,700 1,415 Climbing Salt Lake Center
Sat 10:35:04 AM 40.8397 -112.1739 317° Northwest 286 329 11,400 1,918 Climbing Salt Lake Center
Sat 10:36:05 AM 40.9211 -112.1867 353° North 324 373 13,600 2,341 Climbing Salt Lake Center
Sat 10:37:07 AM 40.9572 -112.0839 65° Northeast 312 359 16,200 1,854 Climbing Salt Lake Center
Sat 10:38:08 AM 40.9742 -111.9636 79° East 342 394 17,400 1,561 Climbing Salt Lake Center
Sat 10:39:10 AM 40.9992 -111.8119 78° East 368 423 19,400 1,512 Climbing Salt Lake Center
Sat 10:40:11 AM 41.0233 -111.6750 77° East 391 450 20,500 976 Climbing Salt Lake Center
Sat 10:41:13 AM 41.0486 -111.5247 77° East 417 480 21,400 1,024 Climbing Salt Lake Center
Sat 10:42:14 AM 41.0753 -111.3683 77° East 433 498 22,600 1,317 Climbing Salt Lake Center
Sat 10:43:16 AM 41.1017 -111.2111 77° East 436 502 24,100 1,415 Climbing Salt Lake Center
Sat 10:44:17 AM 41.1328 -111.0211 78° East 437 503 25,500 1,268 Climbing Salt Lake Center
Sat 10:45:19 AM 41.1600 -110.8575 77° East 451 519 26,700 1,171 Climbing Salt Lake Center
Sat 10:46:20 AM 41.1861 -110.6986 78° East 457 526 27,900 1,073 Climbing Salt Lake Center
Sat 10:47:22 AM 41.2169 -110.5086 78° East 467 537 28,900 1,220 Climbing Salt Lake Center
Sat 10:48:23 AM 41.2422 -110.3458 78° East 469 540 30,400 1,268 Climbing Salt Lake Center
Sat 10:49:25 AM 41.2681 -110.1789 78° East 477 549 31,500 1,756 Climbing Salt Lake Center
Sat 10:50:26 AM 41.3000 -109.9819 78° East 485 558 34,000 1,902 Climbing Salt Lake Center
Sat 10:51:28 AM 41.3256 -109.8142 78° East 485 558 35,400 1,415 Climbing Salt Lake Center
Sat 10:52:29 AM 41.3558 -109.6144 79° East 490 564 36,900 780 Climbing Salt Lake Center
Sat 10:53:31 AM 41.3825 -109.4392 78° East 501 577 37,000 290 Climbing Salt Lake Center
Sat 10:54:33 AM 41.4094 -109.2561 79° East 522 601 37,500 732 Climbing Salt Lake Center
Sat 10:55:34 AM 41.4400 -109.0575 78° East 523 602 38,500 1,024 Climbing Salt Lake Center
Sat 10:56:36 AM 41.4708 -108.8472 79° East 522 601 39,600 919 Climbing Salt Lake Center
Sat 10:57:38 AM 41.4964 -108.6683 79° East 518 596 40,400 683 Climbing Salt Lake Center
Sat 10:58:39 AM 41.5256 -108.4589 79° East 514 592 41,000 293 Climbing Salt Lake Center
Sat 10:59:41 AM 41.5519 -108.2769 79° East 518 596 41,000  Level Salt Lake Center
Sat 11:00:42 AM 41.5817 -108.0606 80° East 529 609 41,000  Level Salt Lake Center
Sat 11:01:44 AM 41.6072 -107.8733 80° East 532 612 41,000  Level Salt Lake Center
Sat 11:02:23 AM 41.6236 -107.7489 80° East 533 613 41,000  Level Denver Center
Sat 11:03:37 AM 41.6481 -107.5631 80° East 532 612 41,000  Level Denver Center
Sat 11:04:39 AM 41.6800 -107.3156 80° East 531 611 41,000  Level Denver Center
Sat 11:05:41 AM 41.7086 -107.1014 80° East 529 609 41,000  Level Denver Center
Sat 11:06:43 AM 41.7319 -106.9186 80° East 524 603 41,000  Level Denver Center
Sat 11:07:45 AM 41.7589 -106.7047 80° East 522 601 41,000  Level Denver Center
Sat 11:08:47 AM 41.7833 -106.5206 80° East 526 605 41,000  Level Denver Center
Sat 11:09:49 AM 41.8064 -106.3097 82° East 533 613 41,000  Level Denver Center
Sat 11:10:51 AM 41.8294 -106.1233 81° East 533 613 41,000  Level Denver Center
Sat 11:11:52 AM 41.8553 -105.9036 81° East 534 615 41,000  Level Denver Center
Sat 11:12:54 AM 41.8747 -105.7461 81° East 535 616 41,000  Level Denver Center
Sat 11:13:56 AM 41.9025 -105.4925 82° East 537 618 41,000  Level Denver Center
Sat 11:14:58 AM 41.9242 -105.3033 81° East 537 618 41,000  Level Denver Center
Sat 11:16:00 AM 41.9489 -105.0808 81° East 541 623 41,000  Level Denver Center
Sat 11:17:02 AM 41.9694 -104.8903 82° East 541 623 41,000  Level Denver Center
Sat 11:18:04 AM 41.9933 -104.6703 82° East 540 621 41,000  Level Denver Center
Sat 11:19:06 AM 42.0125 -104.4808 82° East 538 619 41,000  Level Denver Center
Sat 11:20:08 AM 42.0358 -104.2581 82° East 539 620 41,000  Level Denver Center
Sat 11:21:10 AM 42.0561 -104.0664 82° East 543 625 41,000  Level Denver Center
Sat 11:22:11 AM 42.0792 -103.8400 82° East 546 628 41,000  Level Denver Center
Sat 11:23:13 AM 42.0978 -103.6453 83° East 547 629 41,000  Level Denver Center
Sat 11:24:15 AM 42.1200 -103.4169 82° East 549 632 41,000  Level Denver Center
Sat 11:25:17 AM 42.1381 -103.2228 83° East 549 632 41,000  Level Denver Center
Sat 11:26:19 AM 42.1567 -103.0256 83° East 554 638 41,000  Level Denver Center
Sat 11:27:21 AM 42.1761 -102.7969 83° East 553 636 41,000  Level Denver Center
Sat 11:28:23 AM 42.1942 -102.5986 83° East 554 638 41,000  Level Denver Center
Sat 11:29:25 AM 42.2142 -102.3714 83° East 553 636 41,000  Level Denver Center
Sat 11:30:27 AM 42.2314 -102.1611 84° East 555 639 41,000  Level Denver Center
Sat 11:31:29 AM 42.2494 -101.9625 83° East 555 639 41,000  Level Denver Center
Sat 11:32:31 AM 42.2678 -101.7319 84° East 553 636 41,000  Level Denver Center
Sat 11:33:33 AM 42.2836 -101.5333 84° East 553 636 41,000  Level Denver Center
Sat 11:34:35 AM 42.3014 -101.3022 84° East 553 636 41,000  Level Denver Center
Sat 11:35:36 AM 42.3156 -101.1033 84° East 554 638 41,000  Level Denver Center
Sat 11:36:38 AM 42.3328 -100.8708 84° East 554 638 41,000  Level Denver Center
Sat 11:37:40 AM 42.3472 -100.6719 84° East 554 638 41,000  Level Denver Center
Sat 11:38:42 AM 42.3606 -100.4739 85° East 554 638 41,000  Level Denver Center
Sat 11:39:44 AM 42.3767 -100.2381 85° East 557 641 41,000  Level Denver Center
Sat 11:40:46 AM 42.3897 -100.0394 85° East 555 639 41,000  Level Denver Center
Sat 11:41:48 AM 42.4050 -99.8039 85° East 558 642 41,000  Level Denver Center
Sat 11:42:50 AM 42.4183 -99.5833 85° East 559 643 41,000  Level Denver Center
Sat 11:43:51 AM 42.4306 -99.3703 85° East 561 646 41,000  Level Denver Center
Sat 11:44:53 AM 42.4433 -99.1606 85° East 561 646 41,000  Level Denver Center
Sat 11:45:55 AM 42.4550 -98.9444 86° East 568 654 41,000  Level Denver Center
Sat 11:46:57 AM 42.4667 -98.7308 86° East 569 655 41,000  Level Denver Center
Sat 11:48:21 AM 42.4825 -98.4308 86° East 567 652 41,000  Level Minneapolis Center
Sat 11:49:22 AM 42.4931 -98.2156 86° East 568 654 41,000  Level Minneapolis Center
Sat 11:50:24 AM 42.5031 -98.0006 86° East 572 658 41,000  Level Minneapolis Center
Sat 11:51:25 AM 42.5122 -97.7958 86° East 571 657 41,000  Level Minneapolis Center
Sat 11:52:27 AM 42.5225 -97.5367 87° East 571 657 41,000  Level Minneapolis Center
Sat 11:53:28 AM 42.5319 -97.3208 87° East 572 658 41,000  Level Minneapolis Center
Sat 11:54:30 AM 42.5397 -97.1033 87° East 572 658 41,000  Level Minneapolis Center
Sat 11:55:32 AM 42.5481 -96.8864 87° East 575 662 41,000  Level Minneapolis Center
Sat 11:56:33 AM 42.5558 -96.6672 87° East 576 663 41,000  Level Minneapolis Center
Sat 11:57:35 AM 42.5628 -96.4494 87° East 576 663 41,000  Level Minneapolis Center
Sat 11:58:36 AM 42.5697 -96.2297 87° East 578 665 41,000  Level Minneapolis Center
Sat 11:59:38 AM 42.5758 -96.0083 88° East 582 670 41,000  Level Minneapolis Center
Sat 12:00:39 PM 42.5817 -95.7886 88° East 582 670 41,000  Level Minneapolis Center
Sat 12:01:41 PM 42.5869 -95.5692 88° East 582 670 41,000  Level Minneapolis Center
Sat 12:02:42 PM 42.5933 -95.3042 88° East 582 670 41,000  Level Minneapolis Center
Sat 12:03:44 PM 42.5981 -95.0828 88° East 583 671 41,000  Level Minneapolis Center
Sat 12:04:46 PM 42.6025 -94.8614 88° East 583 671 41,000  Level Minneapolis Center
Sat 12:05:47 PM 42.6053 -94.6400 89° East 584 672 41,000  Level Minneapolis Center
Sat 12:06:49 PM 42.6094 -94.4208 88° East 587 676 41,000  Level Minneapolis Center
Sat 12:07:50 PM 42.6081 -94.2003 90° East 587 676 41,000  Level Minneapolis Center
Sat 12:08:52 PM 42.5964 -93.9792 94° East 588 677 41,000  Level Minneapolis Center
Sat 12:09:53 PM 42.5844 -93.7153 93° East 588 677 41,000  Level Minneapolis Center
Sat 12:10:55 PM 42.5736 -93.4964 94° East 588 677 41,000  Level Minneapolis Center
Sat 12:11:57 PM 42.5625 -93.2794 94° East 585 673 41,000  Level Minneapolis Center
Sat 12:12:58 PM 42.5514 -93.0639 94° East 581 669 41,000  Level Minneapolis Center
Sat 12:14:00 PM 42.5403 -92.8511 94° East 573 659 41,000  Level Minneapolis Center
Sat 12:15:02 PM 42.5278 -92.6389 94° East 573 659 41,000  Level Minneapolis Center
Sat 12:16:00 PM 42.5147 -92.4272 95° East 571 657 41,000  Level Chicago Center
Sat 12:17:02 PM 42.5106 -92.2161 91° East 570 656 41,000  Level Chicago Center
Sat 12:18:03 PM 42.5186 -91.9661 87° East 565 650 41,000  Level Chicago Center
Sat 12:19:05 PM 42.5250 -91.7600 88° East 559 643 41,000  Level Chicago Center
Sat 12:20:07 PM 42.5303 -91.5544 88° East 559 643 41,000  Level Chicago Center
Sat 12:21:08 PM 42.5358 -91.3475 88° East 559 643 41,000  Level Chicago Center
Sat 12:22:10 PM 42.5403 -91.1006 89° East 558 642 41,000  Level Chicago Center
Sat 12:23:12 PM 42.5436 -90.8919 89° East 559 643 41,000  Level Chicago Center
Sat 12:24:14 PM 42.5508 -90.6814 87° East 562 647 41,000  Level Chicago Center
Sat 12:25:16 PM 42.5533 -90.4731 89° East 562 647 41,000  Level Chicago Center
Sat 12:26:17 PM 42.5569 -90.2614 89° East 567 652 41,000  Level Chicago Center
Sat 12:27:19 PM 42.5594 -90.0503 89° East 568 654 41,000  Level Chicago Center
Sat 12:28:21 PM 42.5625 -89.8250 89° East 569 655 41,000  Level Chicago Center
Sat 12:29:23 PM 42.5656 -89.5683 89° East 571 657 41,000  Level Chicago Center
Sat 12:30:25 PM 42.5678 -89.3536 89° East 572 658 41,000  Level Chicago Center
Sat 12:31:27 PM 42.5692 -89.1364 89° East 578 665 41,000  Level Chicago Center
Sat 12:32:28 PM 42.5708 -88.9200 89° East 579 666 41,000  Level Chicago Center
Sat 12:33:30 PM 42.5719 -88.7025 90° East 580 667 41,000  Level Chicago Center
Sat 12:34:32 PM 42.5728 -88.4433 90° East 580 667 41,000  Level Chicago Center
Sat 12:35:34 PM 42.5725 -88.2283 90° East 576 663 41,000  Level Chicago Center
Sat 12:36:36 PM 42.5711 -88.0136 90° East 574 661 41,000  Level Chicago Center
Sat 12:37:38 PM 42.5706 -87.7983 90° East 575 662 41,000  Level Chicago Center
Sat 12:38:40 PM 42.5683 -87.5550 91° East 577 664 41,000  Level Chicago Center
Sat 12:39:42 PM 42.5667 -87.3369 91° East 576 663 41,000  Level Chicago Center
Sat 12:40:43 PM 42.5642 -87.1192 91° East 578 665 41,000  Level Chicago Center
Sat 12:41:45 PM 42.5589 -86.9006 92° East 582 670 41,000  Level Chicago Center
Sat 12:42:47 PM 42.5564 -86.6869 91° East 573 659 41,000  Level Chicago Center
Sat 12:43:49 PM 42.5553 -86.4572 90° East 567 652 41,000  Level Chicago Center
Sat 12:44:51 PM 42.5500 -86.2461 92° East 566 651 41,000  Level Chicago Center
Sat 12:45:53 PM 42.5458 -86.0319 91° East 569 655 41,000  Level Chicago Center
Sat 12:46:55 PM 42.5408 -85.8178 92° East 575 662 41,000  Level Chicago Center
Sat 12:47:57 PM 42.5347 -85.5650 92° East 571 657 41,000  Level Chicago Center
Sat 12:48:59 PM 42.5292 -85.3561 92° East 563 648 41,000  Level Chicago Center
Sat 12:50:01 PM 42.5233 -85.1489 92° East 561 646 41,000  Level Chicago Center
Sat 12:51:03 PM 42.5172 -84.9394 92° East 558 642 41,000  Level Chicago Center
Sat 12:51:48 PM 42.5111 -84.7747 93° East 556 640 41,000  Level Cleveland Center
Sat 12:52:50 PM 42.5036 -84.5497 93° East 555 639 41,000  Level Cleveland Center
Sat 12:53:52 PM 42.4969 -84.3428 92° East 554 638 41,000  Level Cleveland Center
Sat 12:54:53 PM 42.4886 -84.1350 93° East 554 638 41,000  Level Cleveland Center
Sat 12:55:55 PM 42.4803 -83.9264 93° East 554 638 41,000  Level Cleveland Center
Sat 12:56:56 PM 42.4725 -83.7172 93° East 554 638 41,000  Level Cleveland Center
Sat 12:57:58 PM 42.4628 -83.5042 93° East 554 638 41,000  Level Cleveland Center
Sat 12:58:59 PM 42.4531 -83.2919 93° East 554 638 41,000  Level Cleveland Center
Sat 01:00:01 PM 42.4436 -83.0664 93° East 554 638 41,000  Level Cleveland Center
Sat 01:01:03 PM 42.4336 -82.8731 94° East 554 638 41,000  Level Cleveland Center
Sat 01:02:04 PM 42.4208 -82.6242 94° East 552 635 41,000  Level Cleveland Center
Sat 01:03:05 PM 42.4033 -82.4197 97° East 551 634 41,000  Level Cleveland Center
Sat 01:04:07 PM 42.3828 -82.2128 98° East 552 635 41,000  Level Cleveland Center
Sat 01:05:09 PM 42.3642 -82.0242 98° East 552 635 41,000  Level Cleveland Center
Sat 01:06:10 PM 42.3394 -81.7803 98° East 553 636 41,000  Level Cleveland Center
Sat 01:07:12 PM 42.3175 -81.5731 98° East 553 636 41,000  Level Cleveland Center
Sat 01:08:13 PM 42.2953 -81.3650 98° East 553 636 41,000  Level Cleveland Center
Sat 01:09:15 PM 42.2736 -81.1567 98° East 553 636 41,000  Level Cleveland Center
Sat 01:10:16 PM 42.2494 -80.9494 99° East 553 636 41,000  Level Cleveland Center
Sat 01:11:18 PM 42.2242 -80.7442 99° East 553 636 41,000  Level Cleveland Center
Sat 01:12:19 PM 42.1986 -80.5383 99° East 551 634 41,000  Level Cleveland Center
Sat 01:13:21 PM 42.1736 -80.3317 99° East 552 635 41,000  Level Cleveland Center
Sat 01:14:23 PM 42.1472 -80.1278 100° East 549 632 41,000  Level Cleveland Center
Sat 01:15:24 PM 42.1225 -79.9356 100° East 543 625 41,000  Level Cleveland Center
Sat 01:16:26 PM 42.0908 -79.6956 100° East 544 626 41,000  Level Cleveland Center
Sat 01:17:27 PM 42.0636 -79.4947 100° East 545 627 41,000  Level Cleveland Center
Sat 01:18:29 PM 42.0358 -79.2950 101° East 546 628 41,000  Level Cleveland Center
Sat 01:19:31 PM 42.0086 -79.0922 100° East 549 632 41,000  Level Cleveland Center
Sat 01:20:32 PM 41.9808 -78.8928 101° East 549 632 41,000  Level Cleveland Center
Sat 01:21:34 PM 41.9522 -78.6900 101° East 547 629 41,000  Level Cleveland Center
Sat 01:22:36 PM 41.9231 -78.4875 101° East 551 634 41,000  Level Cleveland Center
Sat 01:23:37 PM 41.8947 -78.2844 101° East 552 635 41,000  Level Cleveland Center
Sat 01:24:39 PM 41.8578 -78.0383 101° East 556 640 41,000 -871 Level Cleveland Center
Sat 01:25:41 PM 41.8272 -77.8353 101° East 557 641 39,200 -2,293 Descending Cleveland Center
Sat 01:26:42 PM 41.7978 -77.6367 101° East 549 632 36,300 -2,049 Descending Cleveland Center
Sat 01:27:44 PM 41.7500 -77.4186 106° East 553 636 35,000 -968 Descending Cleveland Center
Sat 01:28:46 PM 41.6972 -77.2214 110° East 562 647 34,300 -1,122 Descending Cleveland Center
Sat 01:29:47 PM 41.6442 -77.0244 110° East 567 652 32,700 -1,415 Descending Cleveland Center
Sat 01:30:49 PM 41.5975 -76.8536 110° East 549 632 31,400 -1,478 Descending Cleveland Center
Sat 01:32:05 PM 41.5228 -76.5842 110° East 547 629 29,300 -1,644 Descending New York Center
Sat 01:33:04 PM 41.4717 -76.3942 110° East 547 629 27,700 -1,785 Descending New York Center
Sat 01:34:06 PM 41.4181 -76.2014 110° East 547 629 25,700 -1,770 Descending New York Center
Sat 01:35:06 PM 41.3711 -76.0403 111° Southeast 542 624 24,100 -2,237 Descending New York Center
Sat 01:36:04 PM 41.3225 -75.8678 111° Southeast 519 597 21,300 -2,622 Descending New York Center
Sat 01:37:05 PM 41.2736 -75.6958 111° Southeast 500 575 18,900 -2,361 Descending New York Center
Sat 01:38:06 PM 41.2275 -75.5489 113° Southeast 454 522 16,500 -2,250 Descending New York Center
Sat 01:39:05 PM 41.1808 -75.4106 114° Southeast 421 484 14,400 -2,237 Descending New York Center
Sat 01:40:04 PM 41.1342 -75.2697 114° Southeast 388 447 12,100 -2,050 Descending New York Center
Sat 01:41:05 PM 41.0950 -75.1514 114° Southeast 363 418 10,300 -1,902 Descending New York Center
Sat 01:42:07 PM 41.0553 -75.0414 116° Southeast 343 395 8,200 -2,150 Descending New York Center
Sat 01:43:05 PM 41.0208 -74.9514 117° Southeast 317 365 6,000 -1,333 Descending New York Center
Sat 01:44:04 PM 40.9767 -74.8469 119° Southeast 303 349 5,600 -950 Descending New York Center
Sat 01:45:05 PM 40.9358 -74.7594 122° Southeast 282 325 4,100 -1,289 Descending New York Center
Sat 01:46:05 PM 40.8992 -74.6747 120° Southeast 276 318 3,000 -605 Descending New York Center
Sat 01:47:04 PM 40.8622 -74.5958 122° Southeast 262 302 2,900  Descending New York Center
Sat 01:48:06 PM 40.8158 -74.5494 143° Southeast 225 259 3,000 50 Climbing New York Center
Sat 01:49:04 PM 40.7653 -74.4972 142° Southeast 219 252 3,000 -454 Level New York Center
Sat 01:50:05 PM 40.7508 -74.4281 105° East 203 234 2,100 -482 Descending New York Center
Sat 01:50:56 PM 40.7333 -74.3667 111° Southeast 179 206 2,100  Level New York TRACON
Sat 01:51:56 PM 40.7167 -74.3000 108° East 189 217 2,100  Level New York TRACON
Sat 01:52:50 PM 40.7333 -74.2500 66° East 183 211 2,100 -158 Level New York TRACON
Sat 01:53:50 PM 40.7667 -74.2000 49° Northeast 177 204 1,800 -250 Descending New York TRACON
Sat 01:54:50 PM 40.8000 -74.1500 49° Northeast 175 201 1,600 -450 Descending New York TRACON
Sat 01:55:50 PM 40.8167 -74.1167 57° Northeast 137 158 900 -700 Descending New York TRACON
Sat 01:58:00 PM 40.8500 -74.0500 101° East  Level FlightAware Approximate

Login

Don't have an account? Register now (free) for customized features, flight alerts, and more!